sensor_id;sensor_type;location;lat;lon;timestamp;temperature;humidity
66013;DHT22;52783;50.502;8.190;2023-02-28T00:00:33;0.40;99.90
66013;DHT22;52783;50.502;8.190;2023-02-28T00:02:59;0.40;99.90
66013;DHT22;52783;50.502;8.190;2023-02-28T00:05:26;0.30;99.90
66013;DHT22;52783;50.502;8.190;2023-02-28T00:07:53;0.30;99.90
66013;DHT22;52783;50.502;8.190;2023-02-28T00:10:20;0.30;99.90
66013;DHT22;52783;50.502;8.190;2023-02-28T00:12:48;0.20;99.90
66013;DHT22;52783;50.502;8.190;2023-02-28T00:15:14;0.20;99.90
66013;DHT22;52783;50.502;8.190;2023-02-28T00:17:40;0.10;99.90
66013;DHT22;52783;50.502;8.190;2023-02-28T00:20:06;0.20;99.90
66013;DHT22;52783;50.502;8.190;2023-02-28T00:22:36;0.10;99.90
66013;DHT22;52783;50.502;8.190;2023-02-28T00:25:02;0.10;99.90
66013;DHT22;52783;50.502;8.190;2023-02-28T00:27:29;0.10;99.90
66013;DHT22;52783;50.502;8.190;2023-02-28T00:29:54;0.00;99.90
66013;DHT22;52783;50.502;8.190;2023-02-28T00:32:20;0.00;99.90
66013;DHT22;52783;50.502;8.190;2023-02-28T00:34:45;0.10;99.90
66013;DHT22;52783;50.502;8.190;2023-02-28T00:37:11;0.10;99.90
66013;DHT22;52783;50.502;8.190;2023-02-28T00:39:40;0.20;99.90
66013;DHT22;52783;50.502;8.190;2023-02-28T00:42:06;0.10;99.90
66013;DHT22;52783;50.502;8.190;2023-02-28T00:44:32;0.10;99.90
66013;DHT22;52783;50.502;8.190;2023-02-28T00:46:58;0.00;99.90
66013;DHT22;52783;50.502;8.190;2023-02-28T00:49:25;0.00;99.90
66013;DHT22;52783;50.502;8.190;2023-02-28T00:51:51;0.10;99.90
66013;DHT22;52783;50.502;8.190;2023-02-28T00:54:17;0.10;99.90
66013;DHT22;52783;50.502;8.190;2023-02-28T00:56:42;0.00;99.90
66013;DHT22;52783;50.502;8.190;2023-02-28T00:59:08;0.00;99.90
66013;DHT22;52783;50.502;8.190;2023-02-28T01:01:34;0.00;99.90
66013;DHT22;52783;50.502;8.190;2023-02-28T01:03:59;0.10;99.90
66013;DHT22;52783;50.502;8.190;2023-02-28T01:06:25;0.00;99.90
66013;DHT22;52783;50.502;8.190;2023-02-28T01:08:50;0.00;99.90
66013;DHT22;52783;50.502;8.190;2023-02-28T01:11:17;-0.10;99.90
66013;DHT22;52783;50.502;8.190;2023-02-28T01:13:45;-0.10;99.90
66013;DHT22;52783;50.502;8.190;2023-02-28T01:16:11;-0.10;99.90
66013;DHT22;52783;50.502;8.190;2023-02-28T01:18:37;-0.20;99.90
66013;DHT22;52783;50.502;8.190;2023-02-28T01:21:04;-0.20;99.90
66013;DHT22;52783;50.502;8.190;2023-02-28T01:23:30;-0.20;99.90
66013;DHT22;52783;50.502;8.190;2023-02-28T01:25:55;-0.30;99.90
66013;DHT22;52783;50.502;8.190;2023-02-28T01:28:21;-0.30;99.90
66013;DHT22;52783;50.502;8.190;2023-02-28T01:30:50;-0.30;99.90
66013;DHT22;52783;50.502;8.190;2023-02-28T01:33:16;-0.40;99.90
66013;DHT22;52783;50.502;8.190;2023-02-28T01:35:41;-0.40;99.90
66013;DHT22;52783;50.502;8.190;2023-02-28T01:38:07;-0.40;99.90
66013;DHT22;52783;50.502;8.190;2023-02-28T01:40:33;-0.40;99.90
66013;DHT22;52783;50.502;8.190;2023-02-28T01:42:58;-0.40;99.90
66013;DHT22;52783;50.502;8.190;2023-02-28T01:45:30;-0.40;99.90
66013;DHT22;52783;50.502;8.190;2023-02-28T01:48:02;-0.40;99.90
66013;DHT22;52783;50.502;8.190;2023-02-28T01:50:33;-0.40;99.90
66013;DHT22;52783;50.502;8.190;2023-02-28T01:53:02;-0.50;99.90
66013;DHT22;52783;50.502;8.190;2023-02-28T01:55:30;-0.50;99.90
66013;DHT22;52783;50.502;8.190;2023-02-28T01:57:58;-0.40;99.90
66013;DHT22;52783;50.502;8.190;2023-02-28T02:00:26;-0.50;99.90
66013;DHT22;52783;50.502;8.190;2023-02-28T02:02:55;-0.50;99.90
66013;DHT22;52783;50.502;8.190;2023-02-28T02:05:24;-0.50;99.90
66013;DHT22;52783;50.502;8.190;2023-02-28T02:07:54;-0.50;99.90
66013;DHT22;52783;50.502;8.190;2023-02-28T02:10:24;-0.60;99.90
66013;DHT22;52783;50.502;8.190;2023-02-28T02:18:45;-0.60;99.90
66013;DHT22;52783;50.502;8.190;2023-02-28T02:27:24;-0.60;99.90
66013;DHT22;52783;50.502;8.190;2023-02-28T02:30:19;-0.70;99.90
66013;DHT22;52783;50.502;8.190;2023-02-28T02:33:09;-0.70;99.90
66013;DHT22;52783;50.502;8.190;2023-02-28T02:38:24;-0.70;99.90
66013;DHT22;52783;50.502;8.190;2023-02-28T02:41:04;-0.70;99.90
66013;DHT22;52783;50.502;8.190;2023-02-28T02:43:40;-0.70;99.90
66013;DHT22;52783;50.502;8.190;2023-02-28T02:46:17;-0.70;99.90
66013;DHT22;52783;50.502;8.190;2023-02-28T02:48:45;-0.70;99.90
66013;DHT22;52783;50.502;8.190;2023-02-28T02:51:16;-0.70;99.90
66013;DHT22;52783;50.502;8.190;2023-02-28T02:53:56;-0.70;99.90
66013;DHT22;52783;50.502;8.190;2023-02-28T02:56:27;-0.70;99.90
66013;DHT22;52783;50.502;8.190;2023-02-28T02:58:57;-0.70;99.90
66013;DHT22;52783;50.502;8.190;2023-02-28T03:01:26;-0.70;99.90
66013;DHT22;52783;50.502;8.190;2023-02-28T03:04:10;-0.70;99.90
66013;DHT22;52783;50.502;8.190;2023-02-28T03:06:36;-0.80;99.90
66013;DHT22;52783;50.502;8.190;2023-02-28T03:09:02;-0.80;99.90
66013;DHT22;52783;50.502;8.190;2023-02-28T03:11:28;-0.90;99.90
66013;DHT22;52783;50.502;8.190;2023-02-28T03:19:51;-0.90;99.90
66013;DHT22;52783;50.502;8.190;2023-02-28T03:22:45;-0.90;99.90
66013;DHT22;52783;50.502;8.190;2023-02-28T03:25:27;-0.90;99.90
66013;DHT22;52783;50.502;8.190;2023-02-28T03:28:02;-0.90;99.90
66013;DHT22;52783;50.502;8.190;2023-02-28T03:31:00;-1.00;99.90
66013;DHT22;52783;50.502;8.190;2023-02-28T03:33:40;-0.90;99.90
66013;DHT22;52783;50.502;8.190;2023-02-28T03:36:12;-0.90;99.90
66013;DHT22;52783;50.502;8.190;2023-02-28T03:38:48;-0.90;99.90
66013;DHT22;52783;50.502;8.190;2023-02-28T03:41:19;-1.00;99.90
66013;DHT22;52783;50.502;8.190;2023-02-28T03:43:52;-1.00;99.90
66013;DHT22;52783;50.502;8.190;2023-02-28T03:46:21;-1.00;99.90
66013;DHT22;52783;50.502;8.190;2023-02-28T03:48:53;-1.00;99.90
66013;DHT22;52783;50.502;8.190;2023-02-28T03:51:23;-1.00;99.90
66013;DHT22;52783;50.502;8.190;2023-02-28T03:53:57;-1.00;99.90
66013;DHT22;52783;50.502;8.190;2023-02-28T03:56:34;-1.00;99.90
66013;DHT22;52783;50.502;8.190;2023-02-28T03:59:22;-1.00;99.90
66013;DHT22;52783;50.502;8.190;2023-02-28T04:01:50;-1.00;99.90
66013;DHT22;52783;50.502;8.190;2023-02-28T04:04:17;-1.00;99.90
66013;DHT22;52783;50.502;8.190;2023-02-28T04:06:43;-1.10;99.90
66013;DHT22;52783;50.502;8.190;2023-02-28T04:09:11;-1.10;99.90
66013;DHT22;52783;50.502;8.190;2023-02-28T04:11:42;-1.10;99.90
66013;DHT22;52783;50.502;8.190;2023-02-28T04:14:09;-1.10;99.90
66013;DHT22;52783;50.502;8.190;2023-02-28T04:16:38;-1.10;99.90
66013;DHT22;52783;50.502;8.190;2023-02-28T04:19:04;-1.20;99.90
66013;DHT22;52783;50.502;8.190;2023-02-28T04:21:33;-1.10;99.90
66013;DHT22;52783;50.502;8.190;2023-02-28T04:23:59;-1.10;99.90
66013;DHT22;52783;50.502;8.190;2023-02-28T04:26:32;-1.10;99.90
66013;DHT22;52783;50.502;8.190;2023-02-28T04:28:59;-1.10;99.90
66013;DHT22;52783;50.502;8.190;2023-02-28T04:31:25;-1.10;99.90
66013;DHT22;52783;50.502;8.190;2023-02-28T04:33:50;-1.10;99.90
66013;DHT22;52783;50.502;8.190;2023-02-28T04:36:16;-1.10;99.90
66013;DHT22;52783;50.502;8.190;2023-02-28T04:38:43;-1.20;99.90
66013;DHT22;52783;50.502;8.190;2023-02-28T04:41:09;-1.20;99.90
66013;DHT22;52783;50.502;8.190;2023-02-28T04:43:35;-1.20;99.90
66013;DHT22;52783;50.502;8.190;2023-02-28T04:46:02;-1.30;99.90
66013;DHT22;52783;50.502;8.190;2023-02-28T04:48:29;-1.30;99.90
66013;DHT22;52783;50.502;8.190;2023-02-28T04:50:59;-1.20;99.90
66013;DHT22;52783;50.502;8.190;2023-02-28T04:53:25;-1.30;99.90
66013;DHT22;52783;50.502;8.190;2023-02-28T04:55:50;-1.30;99.90
66013;DHT22;52783;50.502;8.190;2023-02-28T04:58:15;-1.30;99.90
66013;DHT22;52783;50.502;8.190;2023-02-28T05:00:41;-1.30;99.90
66013;DHT22;52783;50.502;8.190;2023-02-28T05:03:07;-1.30;99.90
66013;DHT22;52783;50.502;8.190;2023-02-28T05:05:32;-1.40;99.90
66013;DHT22;52783;50.502;8.190;2023-02-28T05:07:58;-1.30;99.90
66013;DHT22;52783;50.502;8.190;2023-02-28T05:10:24;-1.40;99.90
66013;DHT22;52783;50.502;8.190;2023-02-28T05:12:49;-1.30;99.90
66013;DHT22;52783;50.502;8.190;2023-02-28T05:15:16;-1.40;99.90
66013;DHT22;52783;50.502;8.190;2023-02-28T05:17:41;-1.40;99.90
66013;DHT22;52783;50.502;8.190;2023-02-28T05:20:09;-1.40;99.90
66013;DHT22;52783;50.502;8.190;2023-02-28T05:22:36;-1.40;99.90
66013;DHT22;52783;50.502;8.190;2023-02-28T05:25:03;-1.40;99.90
66013;DHT22;52783;50.502;8.190;2023-02-28T05:27:29;-1.40;99.90
66013;DHT22;52783;50.502;8.190;2023-02-28T05:29:54;-1.50;99.90
66013;DHT22;52783;50.502;8.190;2023-02-28T05:32:20;-1.40;99.90
66013;DHT22;52783;50.502;8.190;2023-02-28T05:34:46;-1.40;99.90
66013;DHT22;52783;50.502;8.190;2023-02-28T05:37:13;-1.40;99.90
66013;DHT22;52783;50.502;8.190;2023-02-28T05:39:39;-1.50;99.90
66013;DHT22;52783;50.502;8.190;2023-02-28T05:42:04;-1.50;99.90
66013;DHT22;52783;50.502;8.190;2023-02-28T05:44:30;-1.40;99.90
66013;DHT22;52783;50.502;8.190;2023-02-28T05:46:56;-1.40;99.90
66013;DHT22;52783;50.502;8.190;2023-02-28T05:49:21;-1.40;99.90
66013;DHT22;52783;50.502;8.190;2023-02-28T05:51:47;-1.40;99.90
66013;DHT22;52783;50.502;8.190;2023-02-28T05:54:12;-1.40;99.90
66013;DHT22;52783;50.502;8.190;2023-02-28T05:56:38;-1.40;99.90
66013;DHT22;52783;50.502;8.190;2023-02-28T05:59:09;-1.40;99.90
66013;DHT22;52783;50.502;8.190;2023-02-28T06:01:44;-1.40;99.90
66013;DHT22;52783;50.502;8.190;2023-02-28T06:04:17;-1.40;99.90
66013;DHT22;52783;50.502;8.190;2023-02-28T06:06:45;-1.40;99.90
66013;DHT22;52783;50.502;8.190;2023-02-28T06:09:11;-1.40;99.90
66013;DHT22;52783;50.502;8.190;2023-02-28T06:11:36;-1.40;99.90
66013;DHT22;52783;50.502;8.190;2023-02-28T06:14:03;-1.40;99.90
66013;DHT22;52783;50.502;8.190;2023-02-28T06:16:30;-1.40;99.90
66013;DHT22;52783;50.502;8.190;2023-02-28T06:19:01;-1.50;99.90
66013;DHT22;52783;50.502;8.190;2023-02-28T06:21:27;-1.40;99.90
66013;DHT22;52783;50.502;8.190;2023-02-28T06:23:53;-1.40;99.90
66013;DHT22;52783;50.502;8.190;2023-02-28T06:26:19;-1.50;99.90
66013;DHT22;52783;50.502;8.190;2023-02-28T06:28:45;-1.40;99.90
66013;DHT22;52783;50.502;8.190;2023-02-28T06:31:13;-1.40;99.90
66013;DHT22;52783;50.502;8.190;2023-02-28T06:33:39;-1.40;99.90
66013;DHT22;52783;50.502;8.190;2023-02-28T06:36:06;-1.40;99.90
66013;DHT22;52783;50.502;8.190;2023-02-28T06:38:32;-1.30;99.90
66013;DHT22;52783;50.502;8.190;2023-02-28T06:40:59;-1.30;99.90
66013;DHT22;52783;50.502;8.190;2023-02-28T06:43:26;-1.30;99.90
66013;DHT22;52783;50.502;8.190;2023-02-28T06:45:55;-1.20;99.90
66013;DHT22;52783;50.502;8.190;2023-02-28T06:48:21;-1.20;99.90
66013;DHT22;52783;50.502;8.190;2023-02-28T06:50:46;-1.20;99.90
66013;DHT22;52783;50.502;8.190;2023-02-28T06:53:12;-1.10;99.90
66013;DHT22;52783;50.502;8.190;2023-02-28T06:55:39;-1.10;99.90
66013;DHT22;52783;50.502;8.190;2023-02-28T06:58:05;-1.00;99.90
66013;DHT22;52783;50.502;8.190;2023-02-28T07:00:41;-0.90;99.90
66013;DHT22;52783;50.502;8.190;2023-02-28T07:03:06;-0.80;99.90
66013;DHT22;52783;50.502;8.190;2023-02-28T07:05:35;-0.70;99.90
66013;DHT22;52783;50.502;8.190;2023-02-28T07:08:01;-0.70;99.90
66013;DHT22;52783;50.502;8.190;2023-02-28T07:10:27;-0.60;99.90
66013;DHT22;52783;50.502;8.190;2023-02-28T07:12:52;-0.60;99.90
66013;DHT22;52783;50.502;8.190;2023-02-28T07:15:18;-0.60;99.90
66013;DHT22;52783;50.502;8.190;2023-02-28T07:17:43;-0.60;99.90
66013;DHT22;52783;50.502;8.190;2023-02-28T07:20:09;-0.40;99.90
66013;DHT22;52783;50.502;8.190;2023-02-28T07:22:35;-0.20;99.90
66013;DHT22;52783;50.502;8.190;2023-02-28T07:25:00;-0.20;99.90
66013;DHT22;52783;50.502;8.190;2023-02-28T07:27:26;-0.40;99.90
66013;DHT22;52783;50.502;8.190;2023-02-28T07:29:52;-0.40;99.90
66013;DHT22;52783;50.502;8.190;2023-02-28T07:32:18;-0.30;99.90
66013;DHT22;52783;50.502;8.190;2023-02-28T07:34:44;-0.10;99.90
66013;DHT22;52783;50.502;8.190;2023-02-28T07:37:10;0.00;99.90
66013;DHT22;52783;50.502;8.190;2023-02-28T07:39:36;0.00;99.90
66013;DHT22;52783;50.502;8.190;2023-02-28T07:42:05;0.00;99.90
66013;DHT22;52783;50.502;8.190;2023-02-28T07:44:31;0.10;99.90
66013;DHT22;52783;50.502;8.190;2023-02-28T07:46:57;0.20;99.90
66013;DHT22;52783;50.502;8.190;2023-02-28T07:49:23;0.60;99.90
66013;DHT22;52783;50.502;8.190;2023-02-28T07:51:49;0.80;99.90
66013;DHT22;52783;50.502;8.190;2023-02-28T07:54:14;0.80;99.90
66013;DHT22;52783;50.502;8.190;2023-02-28T07:56:40;0.70;99.90
66013;DHT22;52783;50.502;8.190;2023-02-28T07:59:05;0.90;99.90
66013;DHT22;52783;50.502;8.190;2023-02-28T08:01:30;0.70;99.90
66013;DHT22;52783;50.502;8.190;2023-02-28T08:03:56;0.50;99.90
66013;DHT22;52783;50.502;8.190;2023-02-28T08:06:25;0.80;99.90
66013;DHT22;52783;50.502;8.190;2023-02-28T08:08:52;0.60;99.90
66013;DHT22;52783;50.502;8.190;2023-02-28T08:11:18;1.00;99.90
66013;DHT22;52783;50.502;8.190;2023-02-28T08:13:44;1.00;99.90
66013;DHT22;52783;50.502;8.190;2023-02-28T08:16:11;1.10;99.90
66013;DHT22;52783;50.502;8.190;2023-02-28T08:18:36;0.90;99.90
66013;DHT22;52783;50.502;8.190;2023-02-28T08:21:07;0.90;99.90
66013;DHT22;52783;50.502;8.190;2023-02-28T08:23:32;0.80;99.90
66013;DHT22;52783;50.502;8.190;2023-02-28T08:25:58;0.90;99.90
66013;DHT22;52783;50.502;8.190;2023-02-28T08:28:24;1.00;99.90
66013;DHT22;52783;50.502;8.190;2023-02-28T08:30:49;1.30;99.90
66013;DHT22;52783;50.502;8.190;2023-02-28T08:33:15;1.70;99.90
66013;DHT22;52783;50.502;8.190;2023-02-28T08:35:41;1.70;99.90
66013;DHT22;52783;50.502;8.190;2023-02-28T08:38:06;1.80;99.90
66013;DHT22;52783;50.502;8.190;2023-02-28T08:40:32;2.00;99.90
66013;DHT22;52783;50.502;8.190;2023-02-28T08:42:57;1.80;99.90
66013;DHT22;52783;50.502;8.190;2023-02-28T08:45:23;2.00;99.90
66013;DHT22;52783;50.502;8.190;2023-02-28T08:47:49;1.60;99.90
66013;DHT22;52783;50.502;8.190;2023-02-28T08:50:17;2.40;99.90
66013;DHT22;52783;50.502;8.190;2023-02-28T08:52:43;1.80;99.90
66013;DHT22;52783;50.502;8.190;2023-02-28T08:55:10;1.70;99.90
66013;DHT22;52783;50.502;8.190;2023-02-28T08:57:35;2.20;99.90
66013;DHT22;52783;50.502;8.190;2023-02-28T09:00:02;2.10;99.90
66013;DHT22;52783;50.502;8.190;2023-02-28T09:02:30;2.40;99.90
66013;DHT22;52783;50.502;8.190;2023-02-28T09:04:55;2.70;99.90
66013;DHT22;52783;50.502;8.190;2023-02-28T09:07:21;2.40;99.90
66013;DHT22;52783;50.502;8.190;2023-02-28T09:09:46;2.40;99.90
66013;DHT22;52783;50.502;8.190;2023-02-28T09:12:25;2.40;99.90
66013;DHT22;52783;50.502;8.190;2023-02-28T09:14:51;2.70;99.90
66013;DHT22;52783;50.502;8.190;2023-02-28T09:17:18;2.50;99.90
66013;DHT22;52783;50.502;8.190;2023-02-28T09:19:44;2.80;99.90
66013;DHT22;52783;50.502;8.190;2023-02-28T09:22:10;2.40;99.90
66013;DHT22;52783;50.502;8.190;2023-02-28T09:24:37;2.70;99.90
66013;DHT22;52783;50.502;8.190;2023-02-28T09:27:03;3.10;99.90
66013;DHT22;52783;50.502;8.190;2023-02-28T09:29:29;2.90;99.90
66013;DHT22;52783;50.502;8.190;2023-02-28T09:31:54;2.90;99.90
66013;DHT22;52783;50.502;8.190;2023-02-28T09:34:21;2.80;99.90
66013;DHT22;52783;50.502;8.190;2023-02-28T09:36:46;2.60;99.90
66013;DHT22;52783;50.502;8.190;2023-02-28T09:39:13;3.20;99.90
66013;DHT22;52783;50.502;8.190;2023-02-28T09:41:43;2.30;99.90
66013;DHT22;52783;50.502;8.190;2023-02-28T09:44:29;2.40;99.90
66013;DHT22;52783;50.502;8.190;2023-02-28T09:47:07;2.20;99.90
66013;DHT22;52783;50.502;8.190;2023-02-28T09:49:43;1.70;99.90
66013;DHT22;52783;50.502;8.190;2023-02-28T09:52:29;1.60;99.90
66013;DHT22;52783;50.502;8.190;2023-02-28T09:55:18;1.80;99.90
66013;DHT22;52783;50.502;8.190;2023-02-28T09:57:45;2.20;99.90
66013;DHT22;52783;50.502;8.190;2023-02-28T10:00:18;2.30;99.90
66013;DHT22;52783;50.502;8.190;2023-02-28T10:05:58;1.90;99.90
66013;DHT22;52783;50.502;8.190;2023-02-28T10:08:28;2.00;99.90
66013;DHT22;52783;50.502;8.190;2023-02-28T10:11:02;2.10;99.90
66013;DHT22;52783;50.502;8.190;2023-02-28T10:13:35;2.00;99.90
66013;DHT22;52783;50.502;8.190;2023-02-28T10:16:10;2.30;99.90
66013;DHT22;52783;50.502;8.190;2023-02-28T10:21:44;2.50;99.90
66013;DHT22;52783;50.502;8.190;2023-02-28T10:24:26;2.70;99.90
66013;DHT22;52783;50.502;8.190;2023-02-28T10:27:00;2.30;99.90
66013;DHT22;52783;50.502;8.190;2023-02-28T10:29:27;2.30;99.90
66013;DHT22;52783;50.502;8.190;2023-02-28T10:31:52;2.70;99.90
66013;DHT22;52783;50.502;8.190;2023-02-28T10:34:18;2.40;99.90
66013;DHT22;52783;50.502;8.190;2023-02-28T10:36:44;2.50;99.90
66013;DHT22;52783;50.502;8.190;2023-02-28T10:42:28;2.70;99.90
66013;DHT22;52783;50.502;8.190;2023-02-28T10:45:12;2.70;99.90
66013;DHT22;52783;50.502;8.190;2023-02-28T10:47:57;2.60;99.90
66013;DHT22;52783;50.502;8.190;2023-02-28T10:53:28;2.80;99.90
66013;DHT22;52783;50.502;8.190;2023-02-28T10:58:29;2.60;99.90
66013;DHT22;52783;50.502;8.190;2023-02-28T11:00:55;2.80;99.90
66013;DHT22;52783;50.502;8.190;2023-02-28T11:03:29;2.70;99.90
66013;DHT22;52783;50.502;8.190;2023-02-28T11:05:54;2.60;99.90
66013;DHT22;52783;50.502;8.190;2023-02-28T11:08:20;3.00;99.90
66013;DHT22;52783;50.502;8.190;2023-02-28T11:10:47;2.90;99.90
66013;DHT22;52783;50.502;8.190;2023-02-28T11:13:17;2.70;99.90
66013;DHT22;52783;50.502;8.190;2023-02-28T11:15:53;2.40;99.90
66013;DHT22;52783;50.502;8.190;2023-02-28T11:18:53;2.60;99.90
66013;DHT22;52783;50.502;8.190;2023-02-28T11:21:29;2.80;99.90
66013;DHT22;52783;50.502;8.190;2023-02-28T11:24:02;2.60;99.90
66013;DHT22;52783;50.502;8.190;2023-02-28T11:26:37;2.90;99.90
66013;DHT22;52783;50.502;8.190;2023-02-28T11:29:24;2.90;99.90
66013;DHT22;52783;50.502;8.190;2023-02-28T11:32:09;2.80;99.90
66013;DHT22;52783;50.502;8.190;2023-02-28T11:34:38;2.80;99.90
66013;DHT22;52783;50.502;8.190;2023-02-28T11:37:05;3.00;99.90
66013;DHT22;52783;50.502;8.190;2023-02-28T11:39:33;3.10;99.90
66013;DHT22;52783;50.502;8.190;2023-02-28T11:45:34;3.10;99.90
66013;DHT22;52783;50.502;8.190;2023-02-28T11:53:14;3.30;99.90
66013;DHT22;52783;50.502;8.190;2023-02-28T11:55:51;3.40;99.90
66013;DHT22;52783;50.502;8.190;2023-02-28T11:58:29;3.40;99.90
66013;DHT22;52783;50.502;8.190;2023-02-28T12:01:13;3.10;99.90
66013;DHT22;52783;50.502;8.190;2023-02-28T12:03:55;3.00;99.90
66013;DHT22;52783;50.502;8.190;2023-02-28T12:06:36;3.30;99.90
66013;DHT22;52783;50.502;8.190;2023-02-28T12:12:28;3.00;99.90
66013;DHT22;52783;50.502;8.190;2023-02-28T12:15:03;2.90;99.90
66013;DHT22;52783;50.502;8.190;2023-02-28T12:20:12;3.10;99.90
66013;DHT22;52783;50.502;8.190;2023-02-28T12:25:50;2.90;99.90
66013;DHT22;52783;50.502;8.190;2023-02-28T12:28:25;3.20;99.90
66013;DHT22;52783;50.502;8.190;2023-02-28T12:31:09;3.20;99.90
66013;DHT22;52783;50.502;8.190;2023-02-28T12:33:47;3.40;99.90
66013;DHT22;52783;50.502;8.190;2023-02-28T12:36:18;3.40;99.90
66013;DHT22;52783;50.502;8.190;2023-02-28T12:39:08;3.60;99.90
66013;DHT22;52783;50.502;8.190;2023-02-28T12:41:51;3.20;99.90
66013;DHT22;52783;50.502;8.190;2023-02-28T12:46:51;3.50;99.90
66013;DHT22;52783;50.502;8.190;2023-02-28T12:49:23;3.20;99.90
66013;DHT22;52783;50.502;8.190;2023-02-28T12:51:52;3.00;99.90
66013;DHT22;52783;50.502;8.190;2023-02-28T12:54:32;3.40;99.90
66013;DHT22;52783;50.502;8.190;2023-02-28T12:59:48;3.60;99.90
66013;DHT22;52783;50.502;8.190;2023-02-28T13:11:06;3.40;99.90
66013;DHT22;52783;50.502;8.190;2023-02-28T13:13:34;3.40;99.90
66013;DHT22;52783;50.502;8.190;2023-02-28T13:16:08;3.30;99.90
66013;DHT22;52783;50.502;8.190;2023-02-28T13:21:01;3.30;99.90
66013;DHT22;52783;50.502;8.190;2023-02-28T13:31:25;3.50;99.90
66013;DHT22;52783;50.502;8.190;2023-02-28T13:38:46;3.50;99.90
66013;DHT22;52783;50.502;8.190;2023-02-28T13:47:18;3.10;99.90
66013;DHT22;52783;50.502;8.190;2023-02-28T14:05:45;3.20;99.90
66013;DHT22;52783;50.502;8.190;2023-02-28T14:08:18;3.10;99.90
66013;DHT22;52783;50.502;8.190;2023-02-28T14:10:49;3.20;99.90
66013;DHT22;52783;50.502;8.190;2023-02-28T14:16:03;3.20;99.90
66013;DHT22;52783;50.502;8.190;2023-02-28T14:18:33;3.30;99.90
66013;DHT22;52783;50.502;8.190;2023-02-28T14:26:47;3.50;99.90
66013;DHT22;52783;50.502;8.190;2023-02-28T14:32:10;3.50;99.90
66013;DHT22;52783;50.502;8.190;2023-02-28T14:34:48;3.60;99.90
66013;DHT22;52783;50.502;8.190;2023-02-28T14:37:22;3.50;99.90
66013;DHT22;52783;50.502;8.190;2023-02-28T14:39:49;3.60;99.90
66013;DHT22;52783;50.502;8.190;2023-02-28T14:42:34;3.50;99.90
66013;DHT22;52783;50.502;8.190;2023-02-28T14:45:01;3.70;99.90
66013;DHT22;52783;50.502;8.190;2023-02-28T14:47:34;3.70;99.90
66013;DHT22;52783;50.502;8.190;2023-02-28T14:50:03;3.70;99.90
66013;DHT22;52783;50.502;8.190;2023-02-28T14:52:31;3.80;99.90
66013;DHT22;52783;50.502;8.190;2023-02-28T14:54:59;3.70;99.90
66013;DHT22;52783;50.502;8.190;2023-02-28T14:57:31;3.70;99.90
66013;DHT22;52783;50.502;8.190;2023-02-28T15:00:10;3.80;99.90
66013;DHT22;52783;50.502;8.190;2023-02-28T15:02:38;3.60;99.90
66013;DHT22;52783;50.502;8.190;2023-02-28T15:05:16;3.80;99.90
66013;DHT22;52783;50.502;8.190;2023-02-28T15:07:49;3.70;99.90
66013;DHT22;52783;50.502;8.190;2023-02-28T15:10:27;3.70;99.90
66013;DHT22;52783;50.502;8.190;2023-02-28T15:13:01;3.90;99.90
66013;DHT22;52783;50.502;8.190;2023-02-28T15:18:39;3.70;99.90
66013;DHT22;52783;50.502;8.190;2023-02-28T15:21:15;3.60;99.90
66013;DHT22;52783;50.502;8.190;2023-02-28T15:23:43;3.60;99.90
66013;DHT22;52783;50.502;8.190;2023-02-28T15:26:15;3.60;99.90
66013;DHT22;52783;50.502;8.190;2023-02-28T15:28:42;3.80;99.90
66013;DHT22;52783;50.502;8.190;2023-02-28T15:33:55;3.90;99.90
66013;DHT22;52783;50.502;8.190;2023-02-28T15:36:25;3.70;99.90
66013;DHT22;52783;50.502;8.190;2023-02-28T15:38:53;3.90;99.90
66013;DHT22;52783;50.502;8.190;2023-02-28T15:41:37;3.80;99.90
66013;DHT22;52783;50.502;8.190;2023-02-28T15:44:26;4.00;99.90
66013;DHT22;52783;50.502;8.190;2023-02-28T15:47:07;3.90;99.90
66013;DHT22;52783;50.502;8.190;2023-02-28T15:49:46;3.90;99.90
66013;DHT22;52783;50.502;8.190;2023-02-28T15:52:37;3.80;99.90
66013;DHT22;52783;50.502;8.190;2023-02-28T15:55:23;3.90;99.90
66013;DHT22;52783;50.502;8.190;2023-02-28T15:57:53;4.00;99.90
66013;DHT22;52783;50.502;8.190;2023-02-28T16:00:22;4.10;99.90
66013;DHT22;52783;50.502;8.190;2023-02-28T16:02:48;4.10;99.90
66013;DHT22;52783;50.502;8.190;2023-02-28T16:05:30;3.90;99.90
66013;DHT22;52783;50.502;8.190;2023-02-28T16:08:14;3.80;99.90
66013;DHT22;52783;50.502;8.190;2023-02-28T16:10:40;3.70;99.90
66013;DHT22;52783;50.502;8.190;2023-02-28T16:13:06;3.70;99.90
66013;DHT22;52783;50.502;8.190;2023-02-28T16:15:37;3.70;99.90
66013;DHT22;52783;50.502;8.190;2023-02-28T16:18:09;3.50;99.90
66013;DHT22;52783;50.502;8.190;2023-02-28T16:20:36;3.40;99.90
66013;DHT22;52783;50.502;8.190;2023-02-28T16:23:01;3.40;99.90
66013;DHT22;52783;50.502;8.190;2023-02-28T16:25:36;3.40;99.90
66013;DHT22;52783;50.502;8.190;2023-02-28T16:28:03;3.30;99.90
66013;DHT22;52783;50.502;8.190;2023-02-28T16:30:29;3.20;99.90
66013;DHT22;52783;50.502;8.190;2023-02-28T16:32:56;3.30;99.90
66013;DHT22;52783;50.502;8.190;2023-02-28T16:35:23;3.20;99.90
66013;DHT22;52783;50.502;8.190;2023-02-28T16:37:51;3.20;99.90
66013;DHT22;52783;50.502;8.190;2023-02-28T16:40:20;3.10;99.90
66013;DHT22;52783;50.502;8.190;2023-02-28T16:42:47;3.10;99.90
66013;DHT22;52783;50.502;8.190;2023-02-28T16:45:18;3.20;99.90
66013;DHT22;52783;50.502;8.190;2023-02-28T16:47:45;3.20;99.90
66013;DHT22;52783;50.502;8.190;2023-02-28T16:50:20;3.10;99.90
66013;DHT22;52783;50.502;8.190;2023-02-28T16:52:46;3.10;99.90
66013;DHT22;52783;50.502;8.190;2023-02-28T16:55:12;3.10;99.90
66013;DHT22;52783;50.502;8.190;2023-02-28T16:57:38;3.10;99.90
66013;DHT22;52783;50.502;8.190;2023-02-28T17:00:05;2.90;99.90
66013;DHT22;52783;50.502;8.190;2023-02-28T17:02:33;2.90;99.90
66013;DHT22;52783;50.502;8.190;2023-02-28T17:04:58;2.80;99.90
66013;DHT22;52783;50.502;8.190;2023-02-28T17:07:24;2.80;99.90
66013;DHT22;52783;50.502;8.190;2023-02-28T17:09:50;2.80;99.90
66013;DHT22;52783;50.502;8.190;2023-02-28T17:12:15;2.80;99.90
66013;DHT22;52783;50.502;8.190;2023-02-28T17:14:41;2.80;99.90
66013;DHT22;52783;50.502;8.190;2023-02-28T17:17:07;2.80;99.90
66013;DHT22;52783;50.502;8.190;2023-02-28T17:19:33;2.70;99.90
66013;DHT22;52783;50.502;8.190;2023-02-28T17:21:59;2.70;99.90
66013;DHT22;52783;50.502;8.190;2023-02-28T17:24:25;2.70;99.90
66013;DHT22;52783;50.502;8.190;2023-02-28T17:26:51;2.60;99.90
66013;DHT22;52783;50.502;8.190;2023-02-28T17:29:19;2.70;99.90
66013;DHT22;52783;50.502;8.190;2023-02-28T17:31:46;2.60;99.90
66013;DHT22;52783;50.502;8.190;2023-02-28T17:34:12;2.60;99.90
66013;DHT22;52783;50.502;8.190;2023-02-28T17:36:44;2.60;99.90
66013;DHT22;52783;50.502;8.190;2023-02-28T17:39:11;2.50;99.90
66013;DHT22;52783;50.502;8.190;2023-02-28T17:41:40;2.50;99.90
66013;DHT22;52783;50.502;8.190;2023-02-28T17:44:07;2.50;99.90
66013;DHT22;52783;50.502;8.190;2023-02-28T17:46:33;2.40;99.90
66013;DHT22;52783;50.502;8.190;2023-02-28T17:48:58;2.30;99.90
66013;DHT22;52783;50.502;8.190;2023-02-28T17:51:25;2.20;99.90
66013;DHT22;52783;50.502;8.190;2023-02-28T17:53:50;2.30;99.90
66013;DHT22;52783;50.502;8.190;2023-02-28T17:56:19;2.20;99.90